sensor_id;sensor_type;location;lat;lon;timestamp;P1;durP1;ratioP1;P2;durP2;ratioP2
63342;SDS011;49465;57.664;39.686;2022-11-03T00:00:08;0.85;;;0.85;;
63342;SDS011;49465;57.664;39.686;2022-11-03T00:02:38;0.80;;;0.80;;
63342;SDS011;49465;57.664;39.686;2022-11-03T00:05:17;0.80;;;0.80;;
63342;SDS011;49465;57.664;39.686;2022-11-03T00:08:04;0.98;;;0.90;;
63342;SDS011;49465;57.664;39.686;2022-11-03T00:10:36;0.82;;;0.82;;
63342;SDS011;49465;57.664;39.686;2022-11-03T00:13:02;0.80;;;0.80;;
63342;SDS011;49465;57.664;39.686;2022-11-03T00:15:37;1.40;;;0.80;;
63342;SDS011;49465;57.664;39.686;2022-11-03T00:18:18;0.80;;;0.80;;
63342;SDS011;49465;57.664;39.686;2022-11-03T00:21:07;0.70;;;0.70;;
63342;SDS011;49465;57.664;39.686;2022-11-03T00:23:35;0.80;;;0.80;;
63342;SDS011;49465;57.664;39.686;2022-11-03T00:26:14;1.10;;;1.00;;
63342;SDS011;49465;57.664;39.686;2022-11-03T00:28:43;0.70;;;0.70;;
63342;SDS011;49465;57.664;39.686;2022-11-03T00:31:14;0.77;;;0.70;;
63342;SDS011;49465;57.664;39.686;2022-11-03T00:33:45;0.90;;;0.80;;
63342;SDS011;49465;57.664;39.686;2022-11-03T00:36:13;0.80;;;0.80;;
63342;SDS011;49465;57.664;39.686;2022-11-03T00:38:47;0.98;;;0.90;;
63342;SDS011;49465;57.664;39.686;2022-11-03T00:41:17;0.70;;;0.70;;
63342;SDS011;49465;57.664;39.686;2022-11-03T00:43:51;0.70;;;0.70;;
63342;SDS011;49465;57.664;39.686;2022-11-03T00:46:21;0.70;;;0.70;;
63342;SDS011;49465;57.664;39.686;2022-11-03T00:48:49;0.60;;;0.60;;
63342;SDS011;49465;57.664;39.686;2022-11-03T00:51:20;0.70;;;0.70;;
63342;SDS011;49465;57.664;39.686;2022-11-03T00:53:51;0.60;;;0.60;;
63342;SDS011;49465;57.664;39.686;2022-11-03T00:56:25;0.70;;;0.70;;
63342;SDS011;49465;57.664;39.686;2022-11-03T00:59:01;0.60;;;0.60;;
63342;SDS011;49465;57.664;39.686;2022-11-03T01:01:29;0.70;;;0.70;;
63342;SDS011;49465;57.664;39.686;2022-11-03T01:04:02;0.60;;;0.60;;
63342;SDS011;49465;57.664;39.686;2022-11-03T01:06:48;0.77;;;0.60;;
63342;SDS011;49465;57.664;39.686;2022-11-03T01:12:07;0.77;;;0.77;;
63342;SDS011;49465;57.664;39.686;2022-11-03T01:17:31;0.80;;;0.70;;
63342;SDS011;49465;57.664;39.686;2022-11-03T01:20:05;0.73;;;0.70;;
63342;SDS011;49465;57.664;39.686;2022-11-03T01:22:37;1.00;;;0.90;;
63342;SDS011;49465;57.664;39.686;2022-11-03T01:25:04;0.70;;;0.70;;
63342;SDS011;49465;57.664;39.686;2022-11-03T01:27:34;0.80;;;0.80;;
63342;SDS011;49465;57.664;39.686;2022-11-03T01:30:00;0.80;;;0.80;;
63342;SDS011;49465;57.664;39.686;2022-11-03T01:32:30;0.70;;;0.70;;
63342;SDS011;49465;57.664;39.686;2022-11-03T01:34:57;0.80;;;0.80;;
63342;SDS011;49465;57.664;39.686;2022-11-03T01:37:25;0.90;;;0.90;;
63342;SDS011;49465;57.664;39.686;2022-11-03T01:39:52;0.70;;;0.70;;
63342;SDS011;49465;57.664;39.686;2022-11-03T01:42:21;0.88;;;0.88;;
63342;SDS011;49465;57.664;39.686;2022-11-03T01:44:47;0.93;;;0.93;;
63342;SDS011;49465;57.664;39.686;2022-11-03T01:47:22;0.90;;;0.90;;
63342;SDS011;49465;57.664;39.686;2022-11-03T01:50:07;1.08;;;0.98;;
63342;SDS011;49465;57.664;39.686;2022-11-03T01:55:40;1.00;;;0.90;;
63342;SDS011;49465;57.664;39.686;2022-11-03T01:58:27;0.90;;;0.90;;
63342;SDS011;49465;57.664;39.686;2022-11-03T02:01:10;1.15;;;1.05;;
63342;SDS011;49465;57.664;39.686;2022-11-03T02:06:20;1.20;;;1.10;;
63342;SDS011;49465;57.664;39.686;2022-11-03T02:08:57;1.20;;;1.10;;
63342;SDS011;49465;57.664;39.686;2022-11-03T02:11:37;1.23;;;1.13;;
63342;SDS011;49465;57.664;39.686;2022-11-03T02:14:23;1.58;;;1.10;;
63342;SDS011;49465;57.664;39.686;2022-11-03T02:16:56;1.30;;;1.10;;
63342;SDS011;49465;57.664;39.686;2022-11-03T02:22:42;1.50;;;1.40;;
63342;SDS011;49465;57.664;39.686;2022-11-03T02:25:36;1.30;;;1.20;;
63342;SDS011;49465;57.664;39.686;2022-11-03T02:28:10;1.50;;;1.40;;
63342;SDS011;49465;57.664;39.686;2022-11-03T02:33:44;3.47;;;2.60;;
63342;SDS011;49465;57.664;39.686;2022-11-03T02:36:28;6.72;;;4.90;;
63342;SDS011;49465;57.664;39.686;2022-11-03T02:39:24;10.98;;;7.30;;
63342;SDS011;49465;57.664;39.686;2022-11-03T02:42:09;6.40;;;5.22;;
63342;SDS011;49465;57.664;39.686;2022-11-03T02:44:40;4.85;;;4.00;;
63342;SDS011;49465;57.664;39.686;2022-11-03T02:47:11;3.00;;;2.70;;
63342;SDS011;49465;57.664;39.686;2022-11-03T02:49:40;2.60;;;2.40;;
63342;SDS011;49465;57.664;39.686;2022-11-03T02:55:19;2.15;;;1.80;;
63342;SDS011;49465;57.664;39.686;2022-11-03T03:03:51;2.55;;;2.20;;
63342;SDS011;49465;57.664;39.686;2022-11-03T03:06:25;2.88;;;2.22;;
63342;SDS011;49465;57.664;39.686;2022-11-03T03:09:11;3.35;;;2.65;;
63342;SDS011;49465;57.664;39.686;2022-11-03T03:11:54;3.13;;;2.50;;
63342;SDS011;49465;57.664;39.686;2022-11-03T03:14:44;3.42;;;2.67;;
63342;SDS011;49465;57.664;39.686;2022-11-03T03:20:41;2.60;;;2.08;;
63342;SDS011;49465;57.664;39.686;2022-11-03T03:23:19;2.10;;;1.90;;
63342;SDS011;49465;57.664;39.686;2022-11-03T03:28:34;2.80;;;2.50;;
63342;SDS011;49465;57.664;39.686;2022-11-03T03:31:11;2.75;;;2.30;;
63342;SDS011;49465;57.664;39.686;2022-11-03T03:33:47;2.33;;;2.13;;
63342;SDS011;49465;57.664;39.686;2022-11-03T03:36:21;2.95;;;2.58;;
63342;SDS011;49465;57.664;39.686;2022-11-03T03:38:57;2.78;;;2.53;;
63342;SDS011;49465;57.664;39.686;2022-11-03T03:41:32;2.22;;;1.95;;
63342;SDS011;49465;57.664;39.686;2022-11-03T03:44:03;2.10;;;1.90;;
63342;SDS011;49465;57.664;39.686;2022-11-03T03:46:38;2.50;;;2.30;;
63342;SDS011;49465;57.664;39.686;2022-11-03T03:49:12;2.20;;;2.00;;
63342;SDS011;49465;57.664;39.686;2022-11-03T03:51:41;2.10;;;1.90;;
63342;SDS011;49465;57.664;39.686;2022-11-03T03:54:12;2.25;;;2.05;;
63342;SDS011;49465;57.664;39.686;2022-11-03T03:57:00;2.20;;;2.00;;
63342;SDS011;49465;57.664;39.686;2022-11-03T03:59:31;2.40;;;2.20;;
63342;SDS011;49465;57.664;39.686;2022-11-03T04:02:00;2.10;;;1.90;;
63342;SDS011;49465;57.664;39.686;2022-11-03T04:04:29;2.72;;;2.33;;
63342;SDS011;49465;57.664;39.686;2022-11-03T04:06:58;2.60;;;2.40;;
63342;SDS011;49465;57.664;39.686;2022-11-03T04:09:43;2.80;;;2.10;;
63342;SDS011;49465;57.664;39.686;2022-11-03T04:12:12;2.28;;;2.08;;
63342;SDS011;49465;57.664;39.686;2022-11-03T04:15:00;2.20;;;1.90;;
63342;SDS011;49465;57.664;39.686;2022-11-03T04:17:46;2.13;;;1.92;;
63342;SDS011;49465;57.664;39.686;2022-11-03T04:20:49;2.00;;;1.80;;
63342;SDS011;49465;57.664;39.686;2022-11-03T04:23:39;2.00;;;1.80;;
63342;SDS011;49465;57.664;39.686;2022-11-03T04:26:10;2.00;;;1.77;;
63342;SDS011;49465;57.664;39.686;2022-11-03T04:28:46;2.50;;;2.30;;
63342;SDS011;49465;57.664;39.686;2022-11-03T04:31:20;2.78;;;2.30;;
63342;SDS011;49465;57.664;39.686;2022-11-03T04:33:52;2.47;;;2.28;;
63342;SDS011;49465;57.664;39.686;2022-11-03T04:36:22;2.25;;;2.05;;
63342;SDS011;49465;57.664;39.686;2022-11-03T04:39:04;1.95;;;1.80;;
63342;SDS011;49465;57.664;39.686;2022-11-03T04:41:49;2.00;;;1.80;;
63342;SDS011;49465;57.664;39.686;2022-11-03T04:44:21;2.08;;;1.90;;
63342;SDS011;49465;57.664;39.686;2022-11-03T04:46:57;3.33;;;2.00;;
63342;SDS011;49465;57.664;39.686;2022-11-03T04:49:28;2.20;;;2.00;;
63342;SDS011;49465;57.664;39.686;2022-11-03T04:52:04;2.20;;;1.98;;
63342;SDS011;49465;57.664;39.686;2022-11-03T04:54:42;2.20;;;2.00;;
63342;SDS011;49465;57.664;39.686;2022-11-03T04:57:17;2.10;;;1.90;;
63342;SDS011;49465;57.664;39.686;2022-11-03T04:59:48;2.03;;;1.83;;
63342;SDS011;49465;57.664;39.686;2022-11-03T05:02:16;2.25;;;2.05;;
63342;SDS011;49465;57.664;39.686;2022-11-03T05:04:48;2.15;;;1.95;;
63342;SDS011;49465;57.664;39.686;2022-11-03T05:07:34;2.67;;;2.40;;
63342;SDS011;49465;57.664;39.686;2022-11-03T05:10:01;2.38;;;2.17;;
63342;SDS011;49465;57.664;39.686;2022-11-03T05:12:30;2.30;;;2.10;;
63342;SDS011;49465;57.664;39.686;2022-11-03T05:15:22;2.55;;;2.35;;
63342;SDS011;49465;57.664;39.686;2022-11-03T05:17:55;2.65;;;2.10;;
63342;SDS011;49465;57.664;39.686;2022-11-03T05:20:36;2.13;;;1.92;;
63342;SDS011;49465;57.664;39.686;2022-11-03T05:23:09;2.78;;;1.80;;
63342;SDS011;49465;57.664;39.686;2022-11-03T05:25:45;2.23;;;2.00;;
63342;SDS011;49465;57.664;39.686;2022-11-03T05:28:34;1.73;;;1.63;;
63342;SDS011;49465;57.664;39.686;2022-11-03T05:31:17;2.08;;;1.77;;
63342;SDS011;49465;57.664;39.686;2022-11-03T05:33:51;2.15;;;1.92;;
63342;SDS011;49465;57.664;39.686;2022-11-03T05:36:38;2.13;;;1.92;;
63342;SDS011;49465;57.664;39.686;2022-11-03T05:39:23;1.55;;;1.42;;
63342;SDS011;49465;57.664;39.686;2022-11-03T05:42:02;1.90;;;1.70;;
63342;SDS011;49465;57.664;39.686;2022-11-03T05:44:58;1.95;;;1.80;;
63342;SDS011;49465;57.664;39.686;2022-11-03T05:47:49;2.63;;;1.50;;
63342;SDS011;49465;57.664;39.686;2022-11-03T05:50:19;1.70;;;1.50;;
63342;SDS011;49465;57.664;39.686;2022-11-03T05:55:54;1.48;;;1.38;;
63342;SDS011;49465;57.664;39.686;2022-11-03T05:58:39;1.40;;;1.30;;
63342;SDS011;49465;57.664;39.686;2022-11-03T06:01:28;1.50;;;1.40;;
63342;SDS011;49465;57.664;39.686;2022-11-03T06:04:22;1.50;;;1.40;;
63342;SDS011;49465;57.664;39.686;2022-11-03T06:07:05;1.40;;;1.30;;
63342;SDS011;49465;57.664;39.686;2022-11-03T06:09:45;1.40;;;1.30;;
63342;SDS011;49465;57.664;39.686;2022-11-03T06:12:16;1.30;;;1.15;;
63342;SDS011;49465;57.664;39.686;2022-11-03T06:14:46;1.48;;;1.38;;
63342;SDS011;49465;57.664;39.686;2022-11-03T06:19:51;1.30;;;1.20;;
63342;SDS011;49465;57.664;39.686;2022-11-03T06:22:23;1.73;;;1.35;;
63342;SDS011;49465;57.664;39.686;2022-11-03T06:24:51;1.48;;;1.38;;
63342;SDS011;49465;57.664;39.686;2022-11-03T06:27:22;1.98;;;1.45;;
63342;SDS011;49465;57.664;39.686;2022-11-03T06:29:51;1.35;;;1.25;;
63342;SDS011;49465;57.664;39.686;2022-11-03T06:32:28;1.58;;;1.48;;
63342;SDS011;49465;57.664;39.686;2022-11-03T06:34:59;1.40;;;1.30;;
63342;SDS011;49465;57.664;39.686;2022-11-03T06:37:31;1.58;;;1.48;;
63342;SDS011;49465;57.664;39.686;2022-11-03T06:40:00;1.58;;;1.48;;
63342;SDS011;49465;57.664;39.686;2022-11-03T06:42:33;1.45;;;1.35;;
63342;SDS011;49465;57.664;39.686;2022-11-03T06:45:12;1.55;;;1.45;;
63342;SDS011;49465;57.664;39.686;2022-11-03T06:47:51;1.20;;;1.10;;
63342;SDS011;49465;57.664;39.686;2022-11-03T06:50:41;1.50;;;1.40;;
63342;SDS011;49465;57.664;39.686;2022-11-03T06:53:15;1.40;;;1.30;;
63342;SDS011;49465;57.664;39.686;2022-11-03T06:55:50;1.50;;;1.40;;
63342;SDS011;49465;57.664;39.686;2022-11-03T06:58:33;1.42;;;1.33;;
63342;SDS011;49465;57.664;39.686;2022-11-03T07:01:02;2.90;;;1.90;;
63342;SDS011;49465;57.664;39.686;2022-11-03T07:03:59;2.00;;;1.77;;
63342;SDS011;49465;57.664;39.686;2022-11-03T07:06:36;1.42;;;1.27;;
63342;SDS011;49465;57.664;39.686;2022-11-03T07:09:12;1.30;;;1.20;;
63342;SDS011;49465;57.664;39.686;2022-11-03T07:11:52;1.55;;;1.20;;
63342;SDS011;49465;57.664;39.686;2022-11-03T07:14:31;1.60;;;1.50;;
63342;SDS011;49465;57.664;39.686;2022-11-03T07:17:02;3.10;;;2.47;;
63342;SDS011;49465;57.664;39.686;2022-11-03T07:19:38;3.88;;;2.90;;
63342;SDS011;49465;57.664;39.686;2022-11-03T07:24:44;10.30;;;5.60;;
63342;SDS011;49465;57.664;39.686;2022-11-03T07:30:05;1.73;;;1.48;;
63342;SDS011;49465;57.664;39.686;2022-11-03T07:33:17;3.05;;;2.42;;
63342;SDS011;49465;57.664;39.686;2022-11-03T07:35:55;8.05;;;4.60;;
63342;SDS011;49465;57.664;39.686;2022-11-03T07:38:31;8.40;;;6.03;;
63342;SDS011;49465;57.664;39.686;2022-11-03T07:41:05;3.25;;;2.50;;
63342;SDS011;49465;57.664;39.686;2022-11-03T07:43:43;1.92;;;1.73;;
63342;SDS011;49465;57.664;39.686;2022-11-03T07:46:19;2.17;;;1.80;;
63342;SDS011;49465;57.664;39.686;2022-11-03T07:48:57;1.73;;;1.63;;
63342;SDS011;49465;57.664;39.686;2022-11-03T07:56:41;2.50;;;1.70;;
63342;SDS011;49465;57.664;39.686;2022-11-03T07:59:19;1.55;;;1.45;;
63342;SDS011;49465;57.664;39.686;2022-11-03T08:01:57;1.60;;;1.48;;
63342;SDS011;49465;57.664;39.686;2022-11-03T08:04:45;1.58;;;1.30;;
63342;SDS011;49465;57.664;39.686;2022-11-03T08:07:11;1.83;;;1.63;;
63342;SDS011;49465;57.664;39.686;2022-11-03T08:09:48;2.00;;;1.80;;
63342;SDS011;49465;57.664;39.686;2022-11-03T08:12:19;1.63;;;1.52;;
63342;SDS011;49465;57.664;39.686;2022-11-03T08:14:49;1.65;;;1.55;;
63342;SDS011;49465;57.664;39.686;2022-11-03T08:17:23;2.00;;;1.80;;
63342;SDS011;49465;57.664;39.686;2022-11-03T08:19:53;2.17;;;1.77;;
63342;SDS011;49465;57.664;39.686;2022-11-03T08:22:22;2.17;;;1.98;;
63342;SDS011;49465;57.664;39.686;2022-11-03T08:24:53;1.70;;;1.60;;
63342;SDS011;49465;57.664;39.686;2022-11-03T08:27:19;1.67;;;1.58;;
63342;SDS011;49465;57.664;39.686;2022-11-03T08:29:54;1.50;;;1.40;;
63342;SDS011;49465;57.664;39.686;2022-11-03T08:32:40;2.45;;;1.50;;
63342;SDS011;49465;57.664;39.686;2022-11-03T08:35:06;1.70;;;1.60;;
63342;SDS011;49465;57.664;39.686;2022-11-03T08:37:41;1.70;;;1.60;;
63342;SDS011;49465;57.664;39.686;2022-11-03T08:40:13;1.73;;;1.63;;
63342;SDS011;49465;57.664;39.686;2022-11-03T08:42:40;1.67;;;1.50;;
63342;SDS011;49465;57.664;39.686;2022-11-03T08:45:16;2.08;;;1.77;;
63342;SDS011;49465;57.664;39.686;2022-11-03T08:47:47;1.50;;;1.40;;
63342;SDS011;49465;57.664;39.686;2022-11-03T08:50:19;1.70;;;1.60;;
63342;SDS011;49465;57.664;39.686;2022-11-03T08:52:50;2.00;;;1.80;;
63342;SDS011;49465;57.664;39.686;2022-11-03T08:55:43;1.95;;;1.70;;
63342;SDS011;49465;57.664;39.686;2022-11-03T08:58:17;1.60;;;1.50;;
63342;SDS011;49465;57.664;39.686;2022-11-03T09:00:45;1.92;;;1.70;;
63342;SDS011;49465;57.664;39.686;2022-11-03T09:03:17;2.05;;;1.67;;
63342;SDS011;49465;57.664;39.686;2022-11-03T09:05:57;1.70;;;1.60;;
63342;SDS011;49465;57.664;39.686;2022-11-03T09:08:29;20.73;;;16.67;;
63342;SDS011;49465;57.664;39.686;2022-11-03T09:10:55;123.63;;;78.30;;
63342;SDS011;49465;57.664;39.686;2022-11-03T09:13:24;39.90;;;27.23;;
63342;SDS011;49465;57.664;39.686;2022-11-03T09:15:51;29.80;;;20.55;;
63342;SDS011;49465;57.664;39.686;2022-11-03T09:18:28;25.58;;;18.30;;
63342;SDS011;49465;57.664;39.686;2022-11-03T09:20:58;26.60;;;18.98;;
63342;SDS011;49465;57.664;39.686;2022-11-03T09:23:29;25.25;;;18.30;;
63342;SDS011;49465;57.664;39.686;2022-11-03T09:26:04;27.90;;;18.92;;
63342;SDS011;49465;57.664;39.686;2022-11-03T09:28:31;19.27;;;14.10;;
63342;SDS011;49465;57.664;39.686;2022-11-03T09:30:57;16.58;;;12.45;;
63342;SDS011;49465;57.664;39.686;2022-11-03T09:33:24;17.52;;;13.15;;
63342;SDS011;49465;57.664;39.686;2022-11-03T09:35:50;12.93;;;9.75;;
63342;SDS011;49465;57.664;39.686;2022-11-03T09:38:23;14.50;;;9.75;;
63342;SDS011;49465;57.664;39.686;2022-11-03T09:40:52;9.20;;;6.75;;
63342;SDS011;49465;57.664;39.686;2022-11-03T09:43:19;9.00;;;7.18;;
63342;SDS011;49465;57.664;39.686;2022-11-03T09:45:49;10.02;;;7.72;;
63342;SDS011;49465;57.664;39.686;2022-11-03T09:48:15;8.10;;;6.18;;
63342;SDS011;49465;57.664;39.686;2022-11-03T09:50:42;8.27;;;5.28;;
63342;SDS011;49465;57.664;39.686;2022-11-03T09:55:53;5.85;;;4.55;;
63342;SDS011;49465;57.664;39.686;2022-11-03T09:58:19;4.88;;;3.92;;
63342;SDS011;49465;57.664;39.686;2022-11-03T10:00:59;5.53;;;3.58;;
63342;SDS011;49465;57.664;39.686;2022-11-03T10:03:26;4.80;;;3.58;;
63342;SDS011;49465;57.664;39.686;2022-11-03T10:06:05;4.32;;;3.30;;
63342;SDS011;49465;57.664;39.686;2022-11-03T10:08:43;3.60;;;2.92;;
63342;SDS011;49465;57.664;39.686;2022-11-03T10:11:20;4.13;;;2.80;;
63342;SDS011;49465;57.664;39.686;2022-11-03T10:13:53;3.45;;;3.05;;
63342;SDS011;49465;57.664;39.686;2022-11-03T10:16:54;2.15;;;1.90;;
63342;SDS011;49465;57.664;39.686;2022-11-03T10:19:24;4.75;;;2.45;;
63342;SDS011;49465;57.664;39.686;2022-11-03T10:22:11;3.03;;;2.30;;
63342;SDS011;49465;57.664;39.686;2022-11-03T10:24:38;4.57;;;3.10;;
63342;SDS011;49465;57.664;39.686;2022-11-03T10:27:05;3.45;;;2.38;;
63342;SDS011;49465;57.664;39.686;2022-11-03T10:30:02;2.67;;;2.05;;
63342;SDS011;49465;57.664;39.686;2022-11-03T10:32:34;3.50;;;2.30;;
63342;SDS011;49465;57.664;39.686;2022-11-03T10:40:55;3.03;;;2.28;;
63342;SDS011;49465;57.664;39.686;2022-11-03T10:43:38;2.58;;;2.20;;
63342;SDS011;49465;57.664;39.686;2022-11-03T10:51:42;3.10;;;2.50;;
63342;SDS011;49465;57.664;39.686;2022-11-03T10:54:48;3.75;;;2.40;;
63342;SDS011;49465;57.664;39.686;2022-11-03T10:57:26;2.08;;;1.80;;
63342;SDS011;49465;57.664;39.686;2022-11-03T10:59:59;1.90;;;1.70;;
63342;SDS011;49465;57.664;39.686;2022-11-03T11:02:35;2.95;;;1.80;;
63342;SDS011;49465;57.664;39.686;2022-11-03T11:05:08;2.30;;;1.83;;
63342;SDS011;49465;57.664;39.686;2022-11-03T11:07:47;2.38;;;1.92;;
63342;SDS011;49465;57.664;39.686;2022-11-03T11:10:22;3.05;;;2.25;;
63342;SDS011;49465;57.664;39.686;2022-11-03T11:13:21;2.90;;;2.20;;
63342;SDS011;49465;57.664;39.686;2022-11-03T11:16:02;2.45;;;2.08;;
63342;SDS011;49465;57.664;39.686;2022-11-03T11:23:49;2.47;;;2.20;;
63342;SDS011;49465;57.664;39.686;2022-11-03T11:26:31;3.95;;;2.60;;
63342;SDS011;49465;57.664;39.686;2022-11-03T11:31:44;2.42;;;2.00;;
63342;SDS011;49465;57.664;39.686;2022-11-03T11:34:37;2.90;;;2.05;;
63342;SDS011;49465;57.664;39.686;2022-11-03T11:52:56;1.88;;;1.70;;
63342;SDS011;49465;57.664;39.686;2022-11-03T11:58:19;2.33;;;1.85;;
63342;SDS011;49465;57.664;39.686;2022-11-03T12:03:40;2.60;;;1.80;;
63342;SDS011;49465;57.664;39.686;2022-11-03T12:06:11;3.75;;;2.83;;
63342;SDS011;49465;57.664;39.686;2022-11-03T12:08:38;2.55;;;2.00;;
63342;SDS011;49465;57.664;39.686;2022-11-03T12:11:11;2.83;;;2.10;;
63342;SDS011;49465;57.664;39.686;2022-11-03T12:13:48;5.35;;;3.08;;
63342;SDS011;49465;57.664;39.686;2022-11-03T12:16:29;4.50;;;3.00;;
63342;SDS011;49465;57.664;39.686;2022-11-03T12:19:46;3.30;;;2.55;;
63342;SDS011;49465;57.664;39.686;2022-11-03T12:30:05;4.10;;;3.05;;
63342;SDS011;49465;57.664;39.686;2022-11-03T12:32:45;5.10;;;3.70;;
63342;SDS011;49465;57.664;39.686;2022-11-03T12:35:22;3.95;;;3.22;;
63342;SDS011;49465;57.664;39.686;2022-11-03T12:37:54;5.25;;;3.63;;
63342;SDS011;49465;57.664;39.686;2022-11-03T12:40:24;5.80;;;3.60;;
63342;SDS011;49465;57.664;39.686;2022-11-03T12:42:56;6.25;;;4.43;;
63342;SDS011;49465;57.664;39.686;2022-11-03T12:45:33;6.05;;;3.90;;
63342;SDS011;49465;57.664;39.686;2022-11-03T12:48:01;6.75;;;3.70;;
63342;SDS011;49465;57.664;39.686;2022-11-03T12:50:32;4.80;;;3.03;;
63342;SDS011;49465;57.664;39.686;2022-11-03T12:53:18;4.90;;;3.35;;
63342;SDS011;49465;57.664;39.686;2022-11-03T12:55:49;5.10;;;3.10;;
63342;SDS011;49465;57.664;39.686;2022-11-03T12:58:21;4.95;;;3.30;;
63342;SDS011;49465;57.664;39.686;2022-11-03T13:00:54;5.03;;;3.28;;
63342;SDS011;49465;57.664;39.686;2022-11-03T13:03:26;3.30;;;2.60;;
63342;SDS011;49465;57.664;39.686;2022-11-03T13:05:59;3.47;;;2.58;;
63342;SDS011;49465;57.664;39.686;2022-11-03T13:08:33;4.28;;;3.15;;
63342;SDS011;49465;57.664;39.686;2022-11-03T13:11:06;4.40;;;2.90;;
63342;SDS011;49465;57.664;39.686;2022-11-03T13:13:58;3.58;;;2.72;;
63342;SDS011;49465;57.664;39.686;2022-11-03T13:16:29;5.87;;;3.87;;
63342;SDS011;49465;57.664;39.686;2022-11-03T13:19:00;5.20;;;3.30;;
63342;SDS011;49465;57.664;39.686;2022-11-03T13:21:32;4.05;;;3.00;;
63342;SDS011;49465;57.664;39.686;2022-11-03T13:24:01;2.20;;;2.00;;
63342;SDS011;49465;57.664;39.686;2022-11-03T13:26:31;2.95;;;2.25;;
63342;SDS011;49465;57.664;39.686;2022-11-03T13:29:05;3.92;;;2.70;;
63342;SDS011;49465;57.664;39.686;2022-11-03T13:34:08;3.10;;;2.45;;
63342;SDS011;49465;57.664;39.686;2022-11-03T13:36:40;3.42;;;2.70;;
63342;SDS011;49465;57.664;39.686;2022-11-03T13:39:12;3.33;;;2.40;;
63342;SDS011;49465;57.664;39.686;2022-11-03T13:41:48;2.95;;;2.20;;
63342;SDS011;49465;57.664;39.686;2022-11-03T13:44:26;3.08;;;2.20;;
63342;SDS011;49465;57.664;39.686;2022-11-03T13:46:55;2.88;;;2.03;;
63342;SDS011;49465;57.664;39.686;2022-11-03T13:49:31;3.33;;;2.33;;
63342;SDS011;49465;57.664;39.686;2022-11-03T13:52:04;2.53;;;2.20;;
63342;SDS011;49465;57.664;39.686;2022-11-03T13:54:33;2.60;;;2.25;;
63342;SDS011;49465;57.664;39.686;2022-11-03T13:57:00;3.20;;;2.50;;
63342;SDS011;49465;57.664;39.686;2022-11-03T13:59:35;5.13;;;3.63;;
63342;SDS011;49465;57.664;39.686;2022-11-03T14:02:05;11.90;;;6.90;;
63342;SDS011;49465;57.664;39.686;2022-11-03T14:04:32;10.65;;;7.15;;
63342;SDS011;49465;57.664;39.686;2022-11-03T14:07:01;9.63;;;6.20;;
63342;SDS011;49465;57.664;39.686;2022-11-03T14:12:14;4.60;;;3.92;;
63342;SDS011;49465;57.664;39.686;2022-11-03T14:15:05;3.83;;;2.90;;
63342;SDS011;49465;57.664;39.686;2022-11-03T14:17:33;3.55;;;2.70;;
63342;SDS011;49465;57.664;39.686;2022-11-03T14:20:04;3.55;;;2.92;;
63342;SDS011;49465;57.664;39.686;2022-11-03T14:22:39;2.55;;;2.35;;
63342;SDS011;49465;57.664;39.686;2022-11-03T14:25:14;3.53;;;2.90;;
63342;SDS011;49465;57.664;39.686;2022-11-03T14:27:47;4.70;;;2.92;;
63342;SDS011;49465;57.664;39.686;2022-11-03T14:30:28;3.53;;;2.80;;
63342;SDS011;49465;57.664;39.686;2022-11-03T14:32:57;6.25;;;3.60;;
63342;SDS011;49465;57.664;39.686;2022-11-03T14:35:30;5.40;;;3.42;;
63342;SDS011;49465;57.664;39.686;2022-11-03T14:38:01;6.95;;;4.00;;
63342;SDS011;49465;57.664;39.686;2022-11-03T14:40:31;3.35;;;2.67;;
63342;SDS011;49465;57.664;39.686;2022-11-03T14:43:19;4.47;;;3.08;;
63342;SDS011;49465;57.664;39.686;2022-11-03T14:45:54;4.30;;;2.60;;
63342;SDS011;49465;57.664;39.686;2022-11-03T14:48:23;4.10;;;2.60;;
63342;SDS011;49465;57.664;39.686;2022-11-03T14:50:53;3.92;;;2.95;;
63342;SDS011;49465;57.664;39.686;2022-11-03T14:53:27;3.60;;;2.47;;
63342;SDS011;49465;57.664;39.686;2022-11-03T14:55:56;4.10;;;2.88;;
63342;SDS011;49465;57.664;39.686;2022-11-03T14:58:23;4.80;;;3.10;;
63342;SDS011;49465;57.664;39.686;2022-11-03T15:00:58;5.30;;;3.40;;
63342;SDS011;49465;57.664;39.686;2022-11-03T15:03:27;4.65;;;3.53;;
63342;SDS011;49465;57.664;39.686;2022-11-03T15:05:54;3.55;;;2.70;;
63342;SDS011;49465;57.664;39.686;2022-11-03T15:08:26;3.42;;;2.60;;
63342;SDS011;49465;57.664;39.686;2022-11-03T15:10:59;3.85;;;2.88;;
63342;SDS011;49465;57.664;39.686;2022-11-03T15:13:32;4.50;;;3.10;;
63342;SDS011;49465;57.664;39.686;2022-11-03T15:16:03;4.03;;;2.80;;
63342;SDS011;49465;57.664;39.686;2022-11-03T15:18:35;4.35;;;3.03;;
63342;SDS011;49465;57.664;39.686;2022-11-03T15:21:04;5.93;;;3.92;;
63342;SDS011;49465;57.664;39.686;2022-11-03T15:23:33;9.55;;;5.88;;
63342;SDS011;49465;57.664;39.686;2022-11-03T15:26:08;11.10;;;6.30;;
63342;SDS011;49465;57.664;39.686;2022-11-03T15:28:38;15.68;;;8.35;;
63342;SDS011;49465;57.664;39.686;2022-11-03T15:31:09;14.10;;;7.40;;
63342;SDS011;49465;57.664;39.686;2022-11-03T15:33:59;8.55;;;5.10;;
63342;SDS011;49465;57.664;39.686;2022-11-03T15:36:28;12.48;;;7.03;;
63342;SDS011;49465;57.664;39.686;2022-11-03T15:38:57;9.00;;;5.25;;
63342;SDS011;49465;57.664;39.686;2022-11-03T15:41:33;11.80;;;6.22;;
63342;SDS011;49465;57.664;39.686;2022-11-03T15:44:05;10.73;;;6.40;;
63342;SDS011;49465;57.664;39.686;2022-11-03T15:46:31;14.65;;;7.18;;
63342;SDS011;49465;57.664;39.686;2022-11-03T15:49:02;12.07;;;6.82;;
63342;SDS011;49465;57.664;39.686;2022-11-03T15:51:42;10.10;;;6.50;;
63342;SDS011;49465;57.664;39.686;2022-11-03T15:54:08;8.50;;;5.50;;
63342;SDS011;49465;57.664;39.686;2022-11-03T15:56:40;12.20;;;6.90;;
63342;SDS011;49465;57.664;39.686;2022-11-03T15:59:07;12.68;;;7.00;;
63342;SDS011;49465;57.664;39.686;2022-11-03T16:01:34;14.38;;;7.50;;
63342;SDS011;49465;57.664;39.686;2022-11-03T16:04:06;14.35;;;7.57;;
63342;SDS011;49465;57.664;39.686;2022-11-03T16:06:35;11.65;;;6.57;;
63342;SDS011;49465;57.664;39.686;2022-11-03T16:09:05;13.32;;;7.20;;
63342;SDS011;49465;57.664;39.686;2022-11-03T16:11:31;14.48;;;7.63;;
63342;SDS011;49465;57.664;39.686;2022-11-03T16:14:01;10.57;;;5.63;;
63342;SDS011;49465;57.664;39.686;2022-11-03T16:16:40;8.60;;;5.35;;
63342;SDS011;49465;57.664;39.686;2022-11-03T16:19:06;5.70;;;3.90;;
63342;SDS011;49465;57.664;39.686;2022-11-03T16:21:37;6.43;;;3.70;;
63342;SDS011;49465;57.664;39.686;2022-11-03T16:24:06;4.10;;;2.78;;
63342;SDS011;49465;57.664;39.686;2022-11-03T16:26:36;5.85;;;3.20;;
63342;SDS011;49465;57.664;39.686;2022-11-03T16:29:11;3.85;;;2.75;;
63342;SDS011;49465;57.664;39.686;2022-11-03T16:31:43;4.28;;;2.83;;
63342;SDS011;49465;57.664;39.686;2022-11-03T16:34:18;4.90;;;2.60;;
63342;SDS011;49465;57.664;39.686;2022-11-03T16:36:51;5.10;;;2.70;;
63342;SDS011;49465;57.664;39.686;2022-11-03T16:39:18;4.10;;;2.42;;
63342;SDS011;49465;57.664;39.686;2022-11-03T16:41:44;4.00;;;2.35;;
63342;SDS011;49465;57.664;39.686;2022-11-03T16:44:19;3.20;;;2.35;;
63342;SDS011;49465;57.664;39.686;2022-11-03T16:46:51;4.80;;;2.50;;
63342;SDS011;49465;57.664;39.686;2022-11-03T16:49:24;2.83;;;2.33;;
63342;SDS011;49465;57.664;39.686;2022-11-03T16:51:55;3.92;;;2.38;;
63342;SDS011;49465;57.664;39.686;2022-11-03T16:54:33;3.15;;;2.20;;
63342;SDS011;49465;57.664;39.686;2022-11-03T16:57:05;3.17;;;2.30;;
63342;SDS011;49465;57.664;39.686;2022-11-03T16:59:37;3.90;;;2.72;;
63342;SDS011;49465;57.664;39.686;2022-11-03T17:02:09;3.55;;;2.20;;